Decoded Metar for KS32 ( in ) (IATA:) | Meteo·Mobile Aviation Weather
aviador You're here:

KS32 Decoded Metar

in
Report Time2018-12-15 19:15:00
UTC Time2018-12-15 19:30:07
Flight Rules vfr VFR
Wind170° at 16 Gusting to 21 kt
W.Rank170° ranks 12
Current wind is above 170° avg. (10.6)
Visibility9999 m
Phenomena:N/A
Clouds:N/A
Expected CloudBase > 1,200 ft AGL from Temp-Dew spread
CeilingNone
Temp02°C
Dew Point-1°C (81% RH)
AAT-5.9°C
QNH1005 hPa
Raw Report
KS32 151915Z AUTO 17016G21KT 10SM CLR 02/M01 A2967 RMK AO2=

Extra information for KS32:More info

Social comments